Portada
METAR-TAF:

METAR-TAF

Aeropuertos :

Mountain Home, Arkansas, Estados Unidos

latitud: 36-22-14N, longitud: 092-28-19W, altitud: 282 m

Observación

El informe se hizo hace 14 minutos, a las 08:29 UTC
Viento calma
Temperatura 22°C
Humedad 100%
Presión 1015 hPa
Visibilidad: 11.3 km
Cielo despejado

METAR: KBPK 060829Z AUTO 00000KT 7SM CLR 22/22 A2997 RMK AO2 T02170217

Hora: 03:43 (08:43 UTC)

Pronóstico

El informe se hizo hace 6 minutos, a las 08:37 UTC
Pronóstico válido del 06 a las 09 UTC al 07 a las 06 UTC
Viento 3 kt con dirección variable
Visibilidad: 10 km
Nubes dispersas a una altura de 25000 ft
Temporalmente
del 06 a las 10 UTC al 06 a las 13 UTC
Visibilidad: 8.0 km
neblina
A partir de las 06 a las 1400 UTC
Viento 7 kt del este-sureste
Visibilidad: 10 km
Nubes dispersas a una altura de 4000 ft
Nubes dispersas a una altura de 25000 ft

TAF: KBPK 060837Z 0609/0706 VRB03KT P6SM SCT250 TEMPO 0610/0613 5SM BR FM061400 11007KT P6SM SCT040 SCT250

Observaciones y pronósticos meteorológicos de más de 4000 aeropuertos (mensajes METAR y TAF).

Los puntos amarillos y rojos representan las estaciones disponibles.

Ponga el ratón en el punto deseado para ver el nombre de la estación.

Haga clic para ver las observaciones y los pronósticos meteorológicos.

Para cambiar el mapa : haga clic en los botones verdes con una cruz de color negro para hacer un zoom, en el botón verde con un guión para alejar o en las flechas verdes para mapas adyacentes.


METAR-TAF: